Time;durP1;ratioP1;P1;durP2;ratioP2;P2;SDS_P1;SDS_P2;PMS_P1;PMS_P2;Temp;Humidity;BMP_temperature;BMP_pressure;BME280_temperature;BME280_humidity;BME280_pressure;Samples;Min_cycle;Max_cycle;Signal;HPM_P1;HPM_P2
2023/10/17 00:00:12;;;;;;;0.83;0.83;;;;;3.20;96115.00;;;;5075791;28;20200;-56
2023/10/17 00:02:41;;;;;;;1.40;1.30;;;;;3.00;96109.00;;;;5075562;28;20218;-56
2023/10/17 00:05:09;;;;;;;2.40;1.83;;;;;3.00;96096.00;;;;5075510;28;20199;-56
2023/10/17 00:07:37;;;;;;;1.00;1.00;;;;;3.00;96094.00;;;;5075406;28;20187;-55
2023/10/17 00:10:09;;;;;;;2.00;1.23;;;;;3.10;96096.00;;;;5075302;28;20191;-55
2023/10/17 00:12:39;;;;;;;1.30;1.30;;;;;3.00;96087.00;;;;5075421;28;20268;-55
2023/10/17 00:15:17;;;;;;;2.53;1.00;;;;;3.00;96082.00;;;;5075644;28;20191;-55
2023/10/17 00:17:46;;;;;;;1.87;1.70;;;;;2.90;96079.00;;;;5075781;28;20244;-55
2023/10/17 00:20:17;;;;;;;0.80;0.80;;;;;2.70;96078.00;;;;5075833;28;20694;-56
2023/10/17 00:22:44;;;;;;;1.10;1.10;;;;;2.60;96070.00;;;;5075470;28;20215;-56
2023/10/17 00:25:17;;;;;;;1.00;1.00;;;;;2.60;96062.00;;;;5075426;28;20192;-56
2023/10/17 00:27:45;;;;;;;1.40;1.30;;;;;2.50;96058.00;;;;5075669;28;20679;-56
2023/10/17 00:30:17;;;;;;;1.10;1.07;;;;;2.60;96062.00;;;;5074830;28;20192;-56
2023/10/17 00:32:47;;;;;;;1.40;1.30;;;;;2.50;96064.00;;;;5074962;28;20219;-56
2023/10/17 00:35:19;;;;;;;1.30;1.20;;;;;2.50;96060.00;;;;5075589;28;20227;-56
2023/10/17 00:37:53;;;;;;;1.50;1.40;;;;;2.40;96055.00;;;;5073729;28;20251;-56
2023/10/17 00:40:44;;;;;;;0.93;0.93;;;;;2.40;96046.00;;;;5075040;28;20265;-56
2023/10/17 00:43:12;;;;;;;1.47;1.37;;;;;2.40;96045.00;;;;5075013;28;20268;-56
2023/10/17 00:45:40;;;;;;;0.90;0.90;;;;;2.40;96043.00;;;;5075029;28;20203;-56
2023/10/17 00:48:17;;;;;;;1.07;1.07;;;;;2.30;96034.00;;;;5074873;28;20201;-56
2023/10/17 00:50:46;;;;;;;1.20;1.20;;;;;2.30;96033.00;;;;5075087;28;20566;-56
2023/10/17 00:53:14;;;;;;;0.90;0.90;;;;;2.30;96040.00;;;;5074878;28;20201;-56
2023/10/17 00:55:50;;;;;;;1.10;1.10;;;;;2.30;96029.00;;;;5074800;28;20194;-56
2023/10/17 00:58:21;;;;;;;1.30;1.30;;;;;2.40;96039.00;;;;5074909;28;20573;-56
2023/10/17 01:00:53;;;;;;;1.30;1.07;;;;;2.30;96037.00;;;;5073341;28;20307;-56
2023/10/17 01:03:24;;;;;;;1.83;1.73;;;;;2.30;96044.00;;;;5073809;28;20197;-56
2023/10/17 01:06:13;;;;;;;1.07;1.07;;;;;2.50;96040.00;;;;5075247;28;20645;-56
2023/10/17 01:08:44;;;;;;;1.37;1.37;;;;;2.50;96043.00;;;;5074917;28;20187;-56
2023/10/17 01:11:16;;;;;;;0.87;0.87;;;;;2.10;96043.00;;;;5074375;28;20210;-56
2023/10/17 01:13:44;;;;;;;1.30;1.20;;;;;2.20;96030.00;;;;5074568;28;20213;-56
2023/10/17 01:16:15;;;;;;;0.80;0.80;;;;;2.30;96021.00;;;;5074467;28;20554;-56
2023/10/17 01:18:47;;;;;;;1.47;1.43;;;;;2.40;96025.00;;;;5074785;28;20194;-56
2023/10/17 01:21:18;;;;;;;1.10;1.10;;;;;2.30;96014.00;;;;5074118;28;20265;-56
2023/10/17 01:23:46;;;;;;;0.70;0.70;;;;;2.20;96018.00;;;;5074436;28;20232;-56
2023/10/17 01:26:20;;;;;;;0.83;0.83;;;;;2.20;96016.00;;;;5074254;28;20190;-56
2023/10/17 01:28:49;;;;;;;0.80;0.80;;;;;2.20;96011.00;;;;5074229;28;20183;-56
2023/10/17 01:31:22;;;;;;;0.97;0.97;;;;;2.20;96014.00;;;;5073821;28;20284;-56
2023/10/17 01:33:52;;;;;;;1.90;1.53;;;;;2.20;96021.00;;;;5073894;28;20187;-56
2023/10/17 01:36:20;;;;;;;1.00;1.00;;;;;2.10;96028.00;;;;5072436;28;20399;-56
2023/10/17 01:38:49;;;;;;;0.97;0.97;;;;;2.20;96013.00;;;;5074343;28;20194;-56
2023/10/17 01:41:19;;;;;;;1.00;1.00;;;;;2.10;96009.00;;;;5073051;28;20275;-56
2023/10/17 01:43:46;;;;;;;0.80;0.80;;;;;2.10;96019.00;;;;5073734;28;20736;-56
2023/10/17 01:46:17;;;;;;;0.93;0.93;;;;;2.10;96022.00;;;;5073691;28;20281;-56
2023/10/17 01:48:47;;;;;;;1.00;0.97;;;;;2.10;96020.00;;;;5073803;28;20215;-55
2023/10/17 01:51:16;;;;;;;0.87;0.87;;;;;2.20;96009.00;;;;5073925;28;20206;-56
2023/10/17 01:53:48;;;;;;;1.17;1.17;;;;;2.10;96004.00;;;;5073907;28;20321;-55
2023/10/17 01:56:17;;;;;;;0.90;0.90;;;;;2.10;96009.00;;;;5073553;28;20190;-56
2023/10/17 01:58:48;;;;;;;1.23;1.23;;;;;2.20;95995.00;;;;5073976;28;20276;-56
2023/10/17 02:01:18;;;;;;;1.60;1.50;;;;;2.20;95991.00;;;;5073713;28;20222;-56
2023/10/17 02:03:45;;;;;;;0.90;0.90;;;;;2.20;95995.00;;;;5072231;28;20662;-55
2023/10/17 02:06:17;;;;;;;1.00;1.00;;;;;2.30;95987.00;;;;5073734;28;20192;-55
2023/10/17 02:08:45;;;;;;;0.80;0.80;;;;;2.30;95997.00;;;;5073311;28;20654;-56
2023/10/17 02:11:24;;;;;;;1.33;1.33;;;;;2.20;96007.00;;;;5073229;28;20207;-56
2023/10/17 02:13:56;;;;;;;0.90;0.90;;;;;2.00;96001.00;;;;5073561;28;20187;-56
2023/10/17 02:16:24;;;;;;;1.00;1.00;;;;;1.80;96005.00;;;;5073519;28;20555;-56
2023/10/17 02:18:51;;;;;;;0.70;0.70;;;;;1.70;96016.00;;;;5073266;28;20203;-56
2023/10/17 02:21:21;;;;;;;1.90;1.73;;;;;1.80;96020.00;;;;5073291;28;20222;-56
2023/10/17 02:23:51;;;;;;;2.10;1.40;;;;;1.70;96016.00;;;;5073382;28;20194;-56
2023/10/17 02:26:22;;;;;;;1.53;1.43;;;;;1.70;96014.00;;;;5073398;28;20194;-56
2023/10/17 02:28:51;;;;;;;1.00;1.00;;;;;1.70;96013.00;;;;5073443;28;20179;-55
2023/10/17 02:31:27;;;;;;;3.80;1.93;;;;;1.70;96008.00;;;;5073130;28;20686;-55
2023/10/17 02:33:55;;;;;;;1.33;1.30;;;;;1.60;96008.00;;;;5073125;28;20187;-55
2023/10/17 02:36:22;;;;;;;0.97;0.97;;;;;1.60;96011.00;;;;5071858;28;20209;-55
2023/10/17 02:38:50;;;;;;;1.90;1.80;;;;;1.70;96017.00;;;;5072912;28;20209;-56
2023/10/17 02:41:19;;;;;;;1.77;1.67;;;;;1.70;96014.00;;;;5072815;28;20257;-55
2023/10/17 02:43:47;;;;;;;1.07;1.07;;;;;1.70;96011.00;;;;5071762;28;20202;-56
2023/10/17 02:46:15;;;;;;;1.33;1.30;;;;;1.60;96023.00;;;;5073153;28;20205;-55
2023/10/17 02:48:45;;;;;;;0.93;0.93;;;;;1.60;96030.00;;;;5073359;28;20195;-55
2023/10/17 02:51:33;;;;;;;0.97;0.97;;;;;1.50;96022.00;;;;5073322;28;20214;-55
2023/10/17 02:54:05;;;;;;;1.30;1.20;;;;;1.40;96026.00;;;;5077207;28;20637;-55
2023/10/17 02:56:37;;;;;;;1.37;1.37;;;;;1.50;96031.00;;;;5077449;28;20222;-54
2023/10/17 02:59:06;;;;;;;0.80;0.80;;;;;1.50;96017.00;;;;5077490;28;20186;-56
2023/10/17 03:01:36;;;;;;;1.03;1.03;;;;;1.50;96010.00;;;;5076863;28;20218;-56
2023/10/17 03:04:10;;;;;;;1.00;1.00;;;;;1.50;96013.00;;;;5077236;28;20210;-55
2023/10/17 03:06:38;;;;;;;1.10;1.10;;;;;1.50;96016.00;;;;5076591;28;20182;-55
2023/10/17 03:09:32;;;;;;;0.97;0.87;;;;;1.40;96020.00;;;;5076715;28;20191;-55
2023/10/17 03:12:07;;;;;;;1.30;1.27;;;;;1.40;96012.00;;;;5077150;28;20219;-55
2023/10/17 03:14:40;;;;;;;1.10;1.00;;;;;1.20;96012.00;;;;5076648;28;20182;-55
2023/10/17 03:17:07;;;;;;;1.47;1.37;;;;;1.30;96015.00;;;;5077173;28;20193;-55
2023/10/17 03:19:37;;;;;;;1.13;1.13;;;;;1.30;96021.00;;;;5076790;28;20212;-55
2023/10/17 03:22:18;;;;;;;1.63;1.53;;;;;1.20;96013.00;;;;5076962;28;20208;-55
2023/10/17 03:24:47;;;;;;;2.63;1.00;;;;;1.20;96016.00;;;;5075505;28;20198;-55
2023/10/17 03:27:23;;;;;;;1.07;1.07;;;;;1.30;96014.00;;;;5076200;28;20194;-55
2023/10/17 03:29:51;;;;;;;0.90;0.90;;;;;1.40;96017.00;;;;5076613;28;20182;-55
2023/10/17 03:32:21;;;;;;;0.70;0.70;;;;;1.50;96020.00;;;;5076526;28;20225;-55
2023/10/17 03:34:56;;;;;;;0.60;0.60;;;;;1.50;96013.00;;;;5076269;28;20731;-56
2023/10/17 03:37:30;;;;;;;1.17;1.17;;;;;1.50;96019.00;;;;5076533;28;20614;-55
2023/10/17 03:40:00;;;;;;;0.80;0.80;;;;;1.40;96015.00;;;;5076143;28;20186;-55
2023/10/17 03:42:46;;;;;;;0.93;0.93;;;;;1.40;96021.00;;;;5076266;28;20218;-55
2023/10/17 03:45:17;;;;;;;1.17;1.17;;;;;1.40;96017.00;;;;5076667;28;20182;-55
2023/10/17 03:47:53;;;;;;;0.97;0.97;;;;;1.40;96021.00;;;;5077104;28;20219;-55
2023/10/17 03:50:36;;;;;;;0.90;0.90;;;;;1.50;96017.00;;;;5075902;28;20216;-55
2023/10/17 03:53:07;;;;;;;1.20;1.13;;;;;1.50;96020.00;;;;5075909;28;20647;-55
2023/10/17 03:55:36;;;;;;;1.10;1.10;;;;;1.40;96022.00;;;;5076050;28;20190;-55
2023/10/17 03:58:09;;;;;;;1.30;1.20;;;;;1.40;96019.00;;;;5075998;28;20232;-55
2023/10/17 04:00:43;;;;;;;1.03;1.03;;;;;1.30;96021.00;;;;5075759;28;20608;-55
2023/10/17 04:03:19;;;;;;;0.90;0.90;;;;;1.30;96015.00;;;;5075328;28;20275;-56
2023/10/17 04:05:50;;;;;;;2.00;1.33;;;;;1.50;96014.00;;;;5075262;28;20232;-56
2023/10/17 04:08:25;;;;;;;1.00;1.00;;;;;1.50;96017.00;;;;5075526;28;20186;-55
2023/10/17 04:11:07;;;;;;;0.87;0.87;;;;;1.60;96010.00;;;;5075476;28;20664;-56
2023/10/17 04:13:35;;;;;;;1.03;1.03;;;;;1.70;96010.00;;;;5075577;28;20187;-56
2023/10/17 04:16:09;;;;;;;1.17;1.17;;;;;1.70;96009.00;;;;5073943;28;20207;-56
2023/10/17 04:18:37;;;;;;;0.80;0.80;;;;;1.60;96004.00;;;;5075487;28;20600;-56
2023/10/17 04:21:17;;;;;;;1.27;1.20;;;;;1.60;96001.00;;;;5075148;28;20193;-56
2023/10/17 04:23:49;;;;;;;1.40;1.30;;;;;1.60;95996.00;;;;5075304;28;20545;-56
2023/10/17 04:26:19;;;;;;;2.20;2.00;;;;;1.60;95984.00;;;;5075485;28;20192;-56
2023/10/17 04:28:49;;;;;;;1.20;1.20;;;;;1.50;95992.00;;;;5075398;28;20199;-56
2023/10/17 04:31:25;;;;;;;1.20;1.20;;;;;1.40;95974.00;;;;5074785;28;20221;-56
2023/10/17 04:33:56;;;;;;;1.10;1.10;;;;;1.10;95977.00;;;;5074917;28;20183;-56
2023/10/17 04:36:26;;;;;;;1.73;1.60;;;;;1.10;95985.00;;;;5075176;28;20275;-56
2023/10/17 04:39:11;;;;;;;1.17;1.13;;;;;1.10;95982.00;;;;5075241;28;20251;-56
2023/10/17 04:42:03;;;;;;;1.10;1.10;;;;;1.30;95966.00;;;;5073407;28;20250;-56
2023/10/17 04:44:33;;;;;;;1.40;1.03;;;;;1.30;95971.00;;;;5074829;28;20210;-56
2023/10/17 04:47:25;;;;;;;1.03;1.03;;;;;1.40;95975.00;;;;5074856;28;20247;-56
2023/10/17 04:49:53;;;;;;;2.20;2.10;;;;;1.50;95976.00;;;;5073545;28;20190;-56
2023/10/17 04:52:28;;;;;;;1.40;1.23;;;;;1.60;95970.00;;;;5074423;28;20224;-56
2023/10/17 04:55:01;;;;;;;1.40;1.37;;;;;1.60;95964.00;;;;5074629;28;20194;-56
2023/10/17 05:00:15;;;;;;;1.87;1.77;;;;;1.60;95962.00;;;;5072237;28;20199;-56
2023/10/17 05:02:54;;;;;;;1.53;1.20;;;;;1.60;95952.00;;;;5074184;28;20767;-56
2023/10/17 05:05:40;;;;;;;32.77;22.80;;;;;1.70;95959.00;;;;5074945;28;20187;-55
2023/10/17 05:08:11;;;;;;;11.30;9.97;;;;;1.70;95946.00;;;;5074481;28;20587;-56
2023/10/17 06:16:54;;;;;;;1.73;1.63;;;;;2.00;95957.00;;;;5073505;28;20198;-56
2023/10/17 06:19:24;;;;;;;1.17;1.17;;;;;2.00;95949.00;;;;5073217;28;20195;-54
2023/10/17 06:30:33;;;;;;;1.30;1.30;;;;;2.20;95982.00;;;;5065842;28;20202;-58
2023/10/17 06:33:17;;;;;;;2.23;2.07;;;;;2.20;95983.00;;;;5067337;28;20218;-57
2023/10/17 06:35:52;;;;;;;1.90;1.80;;;;;2.10;95981.00;;;;5071588;28;20211;-56
2023/10/17 06:38:20;;;;;;;1.47;1.37;;;;;2.20;95986.00;;;;5071378;28;20193;-55
2023/10/17 06:40:52;;;;;;;1.33;1.30;;;;;2.20;95990.00;;;;5068995;28;20234;-55
2023/10/17 06:43:27;;;;;;;1.00;1.00;;;;;2.20;95998.00;;;;5070889;28;20650;-55
2023/10/17 06:46:05;;;;;;;1.37;1.37;;;;;2.10;95990.00;;;;5069773;28;20190;-55
2023/10/17 06:48:35;;;;;;;1.47;1.47;;;;;2.20;95999.00;;;;5071444;28;20221;-55
2023/10/17 06:51:30;;;;;;;1.07;1.07;;;;;2.30;95999.00;;;;5071132;28;20214;-55
2023/10/17 06:54:05;;;;;;;1.13;1.13;;;;;2.30;96000.00;;;;5066774;28;20187;-55
2023/10/17 06:56:38;;;;;;;1.27;1.17;;;;;2.30;95987.00;;;;5069421;28;20213;-55
2023/10/17 06:59:21;;;;;;;1.20;1.20;;;;;2.20;95999.00;;;;5070921;28;20196;-55
2023/10/17 07:02:10;;;;;;;0.90;0.90;;;;;2.40;95993.00;;;;5071685;28;20306;-55
2023/10/17 07:04:38;;;;;;;0.90;0.90;;;;;2.40;95993.00;;;;5070250;28;20206;-55
2023/10/17 07:07:05;;;;;;;1.10;1.10;;;;;2.50;95991.00;;;;5071210;28;20209;-55
2023/10/17 07:09:37;;;;;;;1.03;1.00;;;;;2.50;95998.00;;;;5071041;28;20192;-55
2023/10/17 07:12:13;;;;;;;1.00;1.00;;;;;2.60;95992.00;;;;5070338;28;20298;-55
2023/10/17 07:14:47;;;;;;;0.87;0.87;;;;;2.70;95993.00;;;;5071282;28;20541;-55
2023/10/17 07:17:27;;;;;;;1.87;1.33;;;;;2.80;95990.00;;;;5067059;28;20198;-55
2023/10/17 07:19:59;;;;;;;1.00;1.00;;;;;2.90;95984.00;;;;5070740;28;20198;-55
2023/10/17 07:22:35;;;;;;;0.90;0.90;;;;;2.90;95986.00;;;;5070061;28;20211;-56
2023/10/17 07:25:03;;;;;;;1.00;1.00;;;;;3.10;95985.00;;;;5070578;28;20655;-55
2023/10/17 07:27:35;;;;;;;1.47;1.37;;;;;3.10;95978.00;;;;5071133;28;20207;-56
2023/10/17 07:30:13;;;;;;;1.60;1.50;;;;;3.20;95976.00;;;;5069739;28;20194;-56
2023/10/17 07:32:49;;;;;;;1.27;1.20;;;;;3.40;95973.00;;;;5070873;28;20624;-56
2023/10/17 07:35:23;;;;;;;0.83;0.83;;;;;3.60;95972.00;;;;5070550;28;20195;-56
2023/10/17 07:37:55;;;;;;;1.63;1.53;;;;;3.70;95973.00;;;;5070456;28;20192;-55
2023/10/17 07:40:42;;;;;;;1.27;1.27;;;;;3.90;95975.00;;;;5071157;28;20551;-56
2023/10/17 07:43:10;;;;;;;1.17;1.17;;;;;4.10;95971.00;;;;5073950;28;20264;-56
2023/10/17 07:45:40;;;;;;;1.63;1.30;;;;;4.20;95966.00;;;;5072318;28;20274;-56
2023/10/17 07:48:21;;;;;;;1.13;1.13;;;;;4.20;95979.00;;;;5073276;28;20286;-55
2023/10/17 07:50:50;;;;;;;1.37;1.37;;;;;4.30;95972.00;;;;5073492;28;20274;-56
2023/10/17 07:53:20;;;;;;;1.43;1.43;;;;;4.30;95966.00;;;;5074096;28;20200;-55
2023/10/17 07:55:49;;;;;;;1.73;1.57;;;;;4.50;95961.00;;;;5073746;28;20198;-55
2023/10/17 07:58:35;;;;;;;1.10;1.10;;;;;4.70;95953.00;;;;5069447;28;20278;-55
2023/10/17 08:01:07;;;;;;;2.77;1.87;;;;;4.80;95951.00;;;;5073437;28;20924;-56
2023/10/17 08:03:41;;;;;;;1.63;1.53;;;;;5.00;95953.00;;;;5074414;28;20261;-56
2023/10/17 08:06:12;;;;;;;1.30;1.30;;;;;5.10;95953.00;;;;5073433;28;20282;-56
2023/10/17 08:08:43;;;;;;;1.33;1.33;;;;;5.10;95954.00;;;;5073134;28;20588;-56
2023/10/17 08:11:26;;;;;;;1.30;1.30;;;;;5.20;95956.00;;;;5070398;28;20318;-56
2023/10/17 08:13:55;;;;;;;3.27;1.87;;;;;5.50;95954.00;;;;5073835;28;20753;-56
2023/10/17 08:16:26;;;;;;;1.60;1.47;;;;;5.70;95954.00;;;;5073409;28;20203;-56
2023/10/17 08:18:58;;;;;;;1.80;1.70;;;;;5.80;95944.00;;;;5072494;28;20219;-56
2023/10/17 08:21:40;;;;;;;1.73;1.63;;;;;5.90;95944.00;;;;5073161;28;20578;-58
2023/10/17 08:24:07;;;;;;;1.30;1.30;;;;;6.00;95937.00;;;;5073773;28;20208;-58
2023/10/17 08:26:40;;;;;;;1.87;1.77;;;;;6.20;95936.00;;;;5073160;28;20649;-56
2023/10/17 08:29:10;;;;;;;1.40;1.40;;;;;6.40;95934.00;;;;5072542;28;20191;-55
2023/10/17 08:31:43;;;;;;;2.33;2.13;;;;;6.50;95943.00;;;;5073204;28;20215;-55
2023/10/17 08:34:14;;;;;;;1.03;1.03;;;;;6.60;95947.00;;;;5073163;28;20191;-55
2023/10/17 08:36:47;;;;;;;1.53;1.43;;;;;6.70;95927.00;;;;5072013;28;20238;-55
2023/10/17 08:39:38;;;;;;;2.03;1.93;;;;;6.70;95938.00;;;;5073297;28;20196;-55
2023/10/17 08:42:05;;;;;;;1.73;1.63;;;;;6.90;95935.00;;;;5073300;28;20247;-55
2023/10/17 08:44:38;;;;;;;2.80;2.57;;;;;6.70;95947.00;;;;5073139;28;20198;-56
2023/10/17 08:47:10;;;;;;;2.30;2.20;;;;;6.70;95945.00;;;;5072914;28;20630;-56
2023/10/17 08:49:39;;;;;;;2.10;2.00;;;;;6.70;95942.00;;;;5072630;28;20196;-57
2023/10/17 08:52:07;;;;;;;3.37;2.90;;;;;6.80;95948.00;;;;5071706;28;20224;-55
2023/10/17 08:54:35;;;;;;;2.10;2.00;;;;;6.60;95945.00;;;;5071035;28;20209;-55
2023/10/17 08:57:03;;;;;;;2.13;1.67;;;;;6.70;95939.00;;;;5071289;28;20203;-55
2023/10/17 09:00:13;;;;;;;2.90;2.70;;;;;7.20;95937.00;;;;5072871;28;20203;-55
2023/10/17 09:02:29;;;;;;;2.97;2.77;;;;;7.40;95936.00;;;;5072948;28;20337;-55
2023/10/17 09:05:05;;;;;;;3.03;2.83;;;;;7.50;95937.00;;;;5072942;28;20551;-55
2023/10/17 09:07:32;;;;;;;3.10;2.40;;;;;7.40;95935.00;;;;5071570;28;20194;-55
2023/10/17 09:10:04;;;;;;;2.47;2.27;;;;;7.40;95935.00;;;;5072789;28;20199;-55
2023/10/17 09:12:42;;;;;;;2.37;2.17;;;;;7.30;95934.00;;;;5072893;28;20238;-55
2023/10/17 09:15:27;;;;;;;2.87;2.60;;;;;7.60;95937.00;;;;5069089;28;20202;-55
2023/10/17 09:18:07;;;;;;;1.87;1.77;;;;;7.20;95929.00;;;;5072382;28;20271;-55
2023/10/17 09:20:39;;;;;;;3.47;3.17;;;;;7.70;95934.00;;;;5070868;28;20203;-55
2023/10/17 09:23:23;;;;;;;5.03;2.87;;;;;7.90;95925.00;;;;5072156;28;20214;-55
2023/10/17 09:25:55;;;;;;;2.33;2.23;;;;;7.90;95927.00;;;;5072457;28;20191;-55
2023/10/17 09:28:24;;;;;;;2.33;2.23;;;;;8.00;95927.00;;;;5071983;28;20285;-55
2023/10/17 09:31:00;;;;;;;1.40;1.40;;;;;8.10;95927.00;;;;5071225;28;20616;-55
2023/10/17 09:33:31;;;;;;;2.57;2.37;;;;;8.40;95924.00;;;;5070701;28;20237;-55
2023/10/17 09:36:03;;;;;;;1.57;1.47;;;;;8.50;95921.00;;;;5071478;28;20230;-55
2023/10/17 09:38:33;;;;;;;2.03;1.93;;;;;8.70;95925.00;;;;5071785;28;20188;-55
2023/10/17 09:41:00;;;;;;;2.33;2.23;;;;;8.70;95921.00;;;;5071419;28;20195;-55
2023/10/17 09:43:29;;;;;;;2.93;1.90;;;;;9.00;95924.00;;;;5071822;28;20205;-56
2023/10/17 09:46:02;;;;;;;2.23;1.97;;;;;9.10;95932.00;;;;5071473;28;20194;-55
2023/10/17 09:48:35;;;;;;;1.77;1.67;;;;;9.20;95933.00;;;;5071400;28;20187;-56
2023/10/17 09:51:05;;;;;;;2.73;1.93;;;;;9.30;95932.00;;;;5070895;28;20202;-56
2023/10/17 09:53:34;;;;;;;1.37;1.33;;;;;9.30;95924.00;;;;5070799;28;20218;-55
2023/10/17 09:56:06;;;;;;;1.83;1.70;;;;;9.30;95924.00;;;;5071709;28;20622;-56
2023/10/17 09:58:37;;;;;;;2.13;1.93;;;;;9.50;95931.00;;;;5071351;28;20195;-57
2023/10/17 10:01:13;;;;;;;1.37;1.37;;;;;9.50;95925.00;;;;5072310;28;20543;-56
2023/10/17 10:03:42;;;;;;;1.50;1.40;;;;;9.40;95930.00;;;;5070988;28;20209;-56
2023/10/17 10:06:26;;;;;;;1.30;1.30;;;;;9.50;95927.00;;;;5070433;28;20199;-57
2023/10/17 10:09:24;;;;;;;3.13;2.93;;;;;9.40;95922.00;;;;5071050;28;20183;-56
2023/10/17 10:11:56;;;;;;;1.67;1.57;;;;;9.60;95928.00;;;;5070456;28;20247;-57
2023/10/17 10:14:49;;;;;;;2.17;2.07;;;;;9.40;95936.00;;;;5071140;28;20210;-57
2023/10/17 10:17:17;;;;;;;2.97;1.73;;;;;9.80;95920.00;;;;5067748;28;20683;-57
2023/10/17 10:20:02;;;;;;;2.57;2.37;;;;;10.30;95919.00;;;;5071683;28;20219;-57
2023/10/17 10:22:50;;;;;;;1.27;1.23;;;;;10.70;95920.00;;;;5071091;28;20218;-57
2023/10/17 10:25:18;;;;;;;1.80;1.70;;;;;11.10;95916.00;;;;5071293;28;20204;-57
2023/10/17 10:27:46;;;;;;;1.93;1.80;;;;;11.40;95924.00;;;;5071980;28;20191;-57
2023/10/17 10:30:35;;;;;;;2.10;2.00;;;;;11.40;95927.00;;;;5071595;28;20215;-57
2023/10/17 10:33:02;;;;;;;1.60;1.50;;;;;11.00;95911.00;;;;5071326;28;20223;-57
2023/10/17 10:35:33;;;;;;;2.57;2.33;;;;;11.40;95920.00;;;;5071601;28;20199;-57
2023/10/17 10:38:02;;;;;;;1.23;1.20;;;;;11.60;95909.00;;;;5070540;28;20184;-57
2023/10/17 10:40:32;;;;;;;2.37;1.37;;;;;11.90;95917.00;;;;5071134;28;20199;-57
2023/10/17 10:43:04;;;;;;;2.07;1.67;;;;;12.20;95920.00;;;;5070632;28;20219;-57
2023/10/17 10:45:36;;;;;;;3.70;2.20;;;;;12.70;95917.00;;;;5071026;28;20217;-57
2023/10/17 10:48:12;;;;;;;1.00;1.00;;;;;13.10;95914.00;;;;5071247;28;20188;-57
2023/10/17 10:50:42;;;;;;;2.03;1.93;;;;;13.10;95915.00;;;;5070868;28;20202;-54
2023/10/17 10:53:23;;;;;;;2.63;2.00;;;;;13.20;95907.00;;;;5069885;28;20269;-54
2023/10/17 10:55:55;;;;;;;1.30;1.30;;;;;13.30;95907.00;;;;5071497;28;20183;-55
2023/10/17 10:58:23;;;;;;;1.73;1.63;;;;;13.50;95899.00;;;;5070724;28;20297;-55
2023/10/17 11:00:51;;;;;;;1.77;1.67;;;;;13.60;95898.00;;;;5070406;28;20557;-55
2023/10/17 11:03:22;;;;;;;1.73;1.63;;;;;13.70;95903.00;;;;5069056;28;20199;-56
2023/10/17 11:05:54;;;;;;;2.10;2.00;;;;;13.50;95909.00;;;;5070577;28;20210;-55
2023/10/17 11:08:24;;;;;;;2.33;2.13;;;;;13.70;95909.00;;;;5069439;28;20218;-56
2023/10/17 11:10:59;;;;;;;1.63;1.53;;;;;13.70;95906.00;;;;5069850;28;20213;-56
2023/10/17 11:13:33;;;;;;;1.73;1.63;;;;;13.70;95908.00;;;;5071397;28;20210;-56
2023/10/17 11:16:01;;;;;;;1.83;1.70;;;;;13.60;95901.00;;;;5075632;28;20260;-57
2023/10/17 11:18:29;;;;;;;1.70;1.57;;;;;13.50;95902.00;;;;5068853;28;20558;-56
2023/10/17 11:20:56;;;;;;;1.93;1.73;;;;;13.60;95898.00;;;;5074030;28;20531;-57
2023/10/17 11:23:27;;;;;;;6.07;2.77;;;;;13.70;95905.00;;;;5073797;28;20206;-58
2023/10/17 11:25:57;;;;;;;3.63;2.27;;;;;13.50;95899.00;;;;5070429;28;20183;-57
2023/10/17 11:28:24;;;;;;;2.43;2.23;;;;;13.80;95900.00;;;;5072804;28;20685;-57
2023/10/17 11:30:52;;;;;;;3.77;2.20;;;;;13.30;95896.00;;;;5074577;28;20192;-57
2023/10/17 11:33:29;;;;;;;1.87;1.47;;;;;13.00;95895.00;;;;5073703;28;20223;-55
2023/10/17 11:36:02;;;;;;;2.07;1.97;;;;;12.70;95892.00;;;;5074557;28;20191;-55
2023/10/17 11:38:40;;;;;;;1.87;1.77;;;;;13.10;95888.00;;;;5072806;28;20215;-55
2023/10/17 11:41:08;;;;;;;2.00;1.90;;;;;13.10;95889.00;;;;5072900;28;20248;-55
2023/10/17 11:43:37;;;;;;;1.83;1.73;;;;;13.10;95879.00;;;;5073744;28;20655;-56
2023/10/17 11:46:12;;;;;;;1.73;1.63;;;;;13.20;95888.00;;;;5073888;28;20207;-56
2023/10/17 11:48:44;;;;;;;2.23;2.13;;;;;13.40;95887.00;;;;5073670;28;20187;-55
2023/10/17 11:51:16;;;;;;;2.17;1.97;;;;;13.30;95886.00;;;;5073349;28;20227;-56
2023/10/17 11:54:07;;;;;;;2.43;2.33;;;;;13.40;95888.00;;;;5073191;28;20212;-56
2023/10/17 11:56:35;;;;;;;1.37;1.27;;;;;13.10;95877.00;;;;5073929;28;20647;-57
2023/10/17 11:59:03;;;;;;;1.67;1.57;;;;;13.20;95886.00;;;;5073711;28;20282;-56
2023/10/17 12:01:35;;;;;;;1.40;1.30;;;;;13.40;95878.00;;;;5073744;28;20231;-56
2023/10/17 12:04:06;;;;;;;1.37;1.27;;;;;13.30;95884.00;;;;5073522;28;20188;-56
2023/10/17 12:06:34;;;;;;;1.07;1.07;;;;;13.40;95875.00;;;;5073568;28;20191;-56
2023/10/17 12:09:17;;;;;;;2.00;1.80;;;;;13.60;95870.00;;;;5073301;28;20679;-56
2023/10/17 12:11:47;;;;;;;1.87;1.77;;;;;13.60;95874.00;;;;5074077;28;20224;-56
2023/10/17 12:14:19;;;;;;;2.57;2.37;;;;;14.00;95860.00;;;;5072229;28;20260;-56
2023/10/17 12:16:49;;;;;;;1.57;1.47;;;;;14.10;95867.00;;;;5069020;28;20712;-56
2023/10/17 12:19:17;;;;;;;1.27;1.20;;;;;13.70;95869.00;;;;5073200;28;20287;-56
2023/10/17 12:21:48;;;;;;;2.50;2.30;;;;;13.80;95870.00;;;;5072721;28;20220;-56
2023/10/17 12:24:19;;;;;;;1.90;1.77;;;;;14.30;95866.00;;;;5071467;28;20302;-56
2023/10/17 12:26:49;;;;;;;1.97;1.87;;;;;14.70;95866.00;;;;5072661;28;20202;-56
2023/10/17 12:29:17;;;;;;;1.93;1.53;;;;;14.90;95867.00;;;;5073781;28;20191;-55
2023/10/17 12:31:45;;;;;;;4.43;1.57;;;;;14.70;95865.00;;;;5072940;28;20246;-56
2023/10/17 12:34:15;;;;;;;2.00;1.90;;;;;14.60;95858.00;;;;5073719;28;20556;-56
2023/10/17 12:36:46;;;;;;;6.40;1.77;;;;;14.70;95852.00;;;;5073150;28;21838;-56
2023/10/17 12:39:13;;;;;;;2.33;2.20;;;;;15.40;95861.00;;;;5073250;28;20187;-56
2023/10/17 12:41:43;;;;;;;1.80;1.70;;;;;14.90;95860.00;;;;5072886;28;20219;-56
2023/10/17 12:44:10;;;;;;;2.87;2.57;;;;;14.60;95854.00;;;;5072855;28;20237;-57
2023/10/17 12:46:38;;;;;;;2.00;1.90;;;;;14.60;95854.00;;;;5071588;28;20587;-56
2023/10/17 12:49:06;;;;;;;2.03;1.87;;;;;15.00;95857.00;;;;5073140;28;20196;-56
2023/10/17 12:51:34;;;;;;;1.67;1.57;;;;;15.10;95853.00;;;;5072734;28;20223;-57
2023/10/17 12:54:03;;;;;;;2.77;2.53;;;;;15.10;95843.00;;;;5073216;28;20298;-57
2023/10/17 12:56:31;;;;;;;1.97;1.87;;;;;14.60;95843.00;;;;5072289;28;20241;-55
2023/10/17 12:59:00;;;;;;;2.00;1.57;;;;;14.60;95842.00;;;;5071746;28;20203;-56
2023/10/17 13:01:28;;;;;;;1.93;1.83;;;;;14.40;95849.00;;;;5071938;28;20559;-56
2023/10/17 13:03:57;;;;;;;2.53;2.33;;;;;14.90;95834.00;;;;5072985;28;20275;-56
2023/10/17 13:06:25;;;;;;;1.40;1.40;;;;;15.00;95829.00;;;;5071914;28;20257;-56
2023/10/17 13:08:56;;;;;;;2.40;2.07;;;;;15.40;95814.00;;;;5072866;28;20638;-56
2023/10/17 13:11:24;;;;;;;2.10;2.00;;;;;16.00;95809.00;;;;5072431;28;20243;-56
2023/10/17 13:13:52;;;;;;;1.30;1.20;;;;;17.10;95814.00;;;;5068178;28;20610;-56
2023/10/17 13:16:23;;;;;;;1.43;1.33;;;;;17.90;95786.00;;;;5067814;28;20555;-56
2023/10/17 13:18:50;;;;;;;2.20;1.83;;;;;19.10;95789.00;;;;5072451;28;20579;-56
2023/10/17 13:21:18;;;;;;;0.80;0.80;;;;;19.90;95818.00;;;;5071635;28;20215;-56
2023/10/17 13:23:46;;;;;;;1.60;1.53;;;;;19.20;95825.00;;;;5072087;28;20199;-56
2023/10/17 13:26:15;;;;;;;2.63;2.23;;;;;19.60;95836.00;;;;5071923;28;20199;-56
2023/10/17 13:28:43;;;;;;;1.27;1.17;;;;;18.40;95827.00;;;;5070151;28;20195;-56
2023/10/17 13:31:11;;;;;;;1.27;1.20;;;;;19.60;95805.00;;;;5071183;28;20222;-56
2023/10/17 13:33:41;;;;;;;2.07;1.97;;;;;20.40;95809.00;;;;5070795;28;20219;-56
2023/10/17 13:36:10;;;;;;;2.30;1.93;;;;;20.80;95797.00;;;;5071853;28;20198;-57
2023/10/17 13:38:38;;;;;;;1.00;1.00;;;;;20.90;95797.00;;;;5072038;28;20256;-56
2023/10/17 13:41:06;;;;;;;1.67;1.57;;;;;22.30;95810.00;;;;5071643;28;20195;-56
2023/10/17 13:43:35;;;;;;;0.90;0.90;;;;;22.50;95813.00;;;;5071804;28;20240;-56
2023/10/17 13:46:09;;;;;;;1.60;1.50;;;;;23.30;95782.00;;;;5071999;28;20200;-56
2023/10/17 13:48:36;;;;;;;1.13;1.13;;;;;25.30;95775.00;;;;5071600;28;20207;-57
2023/10/17 13:51:06;;;;;;;1.40;1.30;;;;;27.40;95776.00;;;;5071572;28;20200;-57
2023/10/17 13:53:36;;;;;;;1.40;1.30;;;;;29.90;95784.00;;;;5071509;28;20234;-57
2023/10/17 13:56:07;;;;;;;1.00;1.00;;;;;31.10;95777.00;;;;5071383;28;20195;-57
2023/10/17 13:58:36;;;;;;;0.77;0.77;;;;;32.30;95807.00;;;;5070205;28;20192;-58
2023/10/17 14:01:27;;;;;;;1.00;1.00;;;;;28.50;95817.00;;;;5071440;28;20195;-57
2023/10/17 14:03:51;;;;;;;0.90;0.90;;;;;26.60;95814.00;;;;5071195;28;20322;-57
2023/10/17 14:06:21;;;;;;;2.03;1.88;;;;;26.00;95805.00;;;;5070637;28;20657;-57